Time;durP1;ratioP1;P1;durP2;ratioP2;P2;SDS_P1;SDS_P2;PMS_P1;PMS_P2;Temp;Humidity;BMP_temperature;BMP_pressure;BME280_temperature;BME280_humidity;BME280_pressure;Samples;Min_cycle;Max_cycle;Signal;HPM_P1;HPM_P2
2022/10/16 00:01:20;;;;;;;;;;;;;;;14.26;76.40;100550.27;86205;1297;88695;-56
2022/10/16 00:03:27;;;;;;;;;;;;;;;14.27;76.43;100549.21;86207;1294;92358;-55
2022/10/16 00:05:39;;;;;;;;;;;;;;;14.29;76.28;100550.23;86174;1294;79174;-53
2022/10/16 00:07:50;;;;;;;;;;;;;;;14.32;76.29;100551.25;86168;1295;82308;-58
2022/10/16 00:09:58;;;;;;;;;;;;;;;14.32;76.16;100548.40;86157;1297;98908;-59
2022/10/16 00:12:07;;;;;;;;;;;;;;;14.32;76.20;100545.45;86166;1297;89003;-54
2022/10/16 00:14:16;;;;;;;;;;;;;;;14.32;76.07;100546.73;86166;1294;94375;-53
2022/10/16 00:16:23;;;;;;;;;;;;;;;14.32;76.05;100545.52;86165;1295;80809;-56
2022/10/16 00:18:31;;;;;;;;;;;;;;;14.31;75.96;100548.67;86082;1291;83049;-59
2022/10/16 00:20:38;;;;;;;;;;;;;;;14.29;76.05;100546.63;86158;1292;98243;-57
2022/10/16 00:22:46;;;;;;;;;;;;;;;14.25;76.01;100546.72;86150;1296;86817;-56
2022/10/16 00:24:55;;;;;;;;;;;;;;;14.23;76.05;100545.91;86121;1298;93394;-51
2022/10/16 00:27:03;;;;;;;;;;;;;;;14.22;76.08;100545.55;86126;1296;79944;-56
2022/10/16 00:29:11;;;;;;;;;;;;;;;14.18;76.13;100541.70;86141;1291;82355;-51
2022/10/16 00:31:20;;;;;;;;;;;;;;;14.16;76.20;100543.45;86191;1298;97585;-56
2022/10/16 00:33:27;;;;;;;;;;;;;;;14.13;76.22;100540.48;86226;1292;88489;-58
2022/10/16 00:35:34;;;;;;;;;;;;;;;14.11;76.31;100543.30;86166;1297;93353;-57
2022/10/16 00:37:45;;;;;;;;;;;;;;;14.08;76.34;100548.21;86190;1296;79919;-59
2022/10/16 00:39:52;;;;;;;;;;;;;;;14.05;76.37;100551.11;86205;1289;79885;-59
2022/10/16 00:41:58;;;;;;;;;;;;;;;14.04;76.46;100553.68;86195;1296;96531;-55
2022/10/16 00:44:20;;;;;;;;;;;;;;;14.02;76.46;100552.77;86161;1295;89376;-56
2022/10/16 00:46:29;;;;;;;;;;;;;;;14.00;76.57;100557.65;86188;1294;95115;-56
2022/10/16 00:48:37;;;;;;;;;;;;;;;13.98;76.76;100560.46;86235;1299;81915;-55
2022/10/16 00:50:45;;;;;;;;;;;;;;;13.97;76.83;100558.25;86168;1291;81492;-55
2022/10/16 00:52:53;;;;;;;;;;;;;;;13.97;76.91;100560.75;86178;1299;99840;-56
2022/10/16 00:55:01;;;;;;;;;;;;;;;13.99;76.94;100559.29;86114;1295;88387;-55
2022/10/16 00:57:09;;;;;;;;;;;;;;;13.99;77.00;100557.02;86123;1295;92729;-54
2022/10/16 00:59:20;;;;;;;;;;;;;;;14.02;76.98;100557.02;86123;1297;78951;-55
2022/10/16 01:01:29;;;;;;;;;;;;;;;14.05;76.92;100558.95;86180;1295;83504;-55
2022/10/16 01:03:40;;;;;;;;;;;;;;;14.09;77.06;100567.10;86164;1288;99689;-58
2022/10/16 01:05:53;;;;;;;;;;;;;;;14.11;77.10;100570.99;86123;1291;89572;-59
2022/10/16 01:08:06;;;;;;;;;;;;;;;14.16;77.27;100570.13;86122;1296;94685;-54
2022/10/16 01:10:22;;;;;;;;;;;;;;;14.23;77.20;100570.46;86145;1294;80905;-56
2022/10/16 01:12:41;;;;;;;;;;;;;;;14.27;77.22;100569.91;86158;1296;81714;-55
2022/10/16 01:14:54;;;;;;;;;;;;;;;14.30;77.23;100572.85;86156;1296;97467;-53
2022/10/16 01:17:07;;;;;;;;;;;;;;;14.34;77.16;100576.51;86157;1289;88227;-56
2022/10/16 01:19:20;;;;;;;;;;;;;;;14.35;77.11;100571.91;86189;1289;93781;-55
2022/10/16 01:21:33;;;;;;;;;;;;;;;14.35;77.00;100572.04;86182;1296;82459;-55
2022/10/16 01:23:51;;;;;;;;;;;;;;;14.38;77.04;100571.16;86179;1298;82267;-54
2022/10/16 01:26:28;;;;;;;;;;;;;;;14.42;77.01;100574.29;86230;1297;98896;-54
2022/10/16 01:28:38;;;;;;;;;;;;;;;14.45;77.04;100578.68;86185;1290;89364;-56
2022/10/16 01:30:47;;;;;;;;;;;;;;;14.48;77.02;100581.27;86110;1296;94747;-56
2022/10/16 01:33:06;;;;;;;;;;;;;;;14.49;77.09;100582.27;86091;1296;82033;-56
2022/10/16 01:35:18;;;;;;;;;;;;;;;14.51;76.98;100583.23;86189;1291;82776;-56
2022/10/16 01:37:33;;;;;;;;;;;;;;;14.50;76.99;100583.14;86173;1295;99579;-58
2022/10/16 01:39:43;;;;;;;;;;;;;;;14.54;76.91;100585.36;86149;1297;87877;-57
2022/10/16 01:41:56;;;;;;;;;;;;;;;14.55;76.86;100585.58;86154;1294;94963;-55
2022/10/16 01:44:06;;;;;;;;;;;;;;;14.56;76.82;100582.20;86142;1297;82138;-53
2022/10/16 01:46:15;;;;;;;;;;;;;;;14.56;76.83;100587.70;86165;1291;80564;-54
2022/10/16 01:48:23;;;;;;;;;;;;;;;14.58;76.76;100587.70;86180;1295;99608;-55
2022/10/16 01:50:32;;;;;;;;;;;;;;;14.55;76.75;100586.08;86199;1296;89146;-56
2022/10/16 01:52:43;;;;;;;;;;;;;;;14.55;76.68;100586.11;86156;1292;95319;-56
2022/10/16 01:54:51;;;;;;;;;;;;;;;14.55;76.54;100578.63;86165;1296;79431;-56
2022/10/16 01:57:00;;;;;;;;;;;;;;;14.52;76.46;100577.52;86169;1296;83098;-60
2022/10/16 01:59:14;;;;;;;;;;;;;;;14.47;76.40;100572.37;86188;1290;98074;-57
2022/10/16 02:01:25;;;;;;;;;;;;;;;14.40;76.42;100574.43;86168;1289;88685;-57
2022/10/16 02:03:35;;;;;;;;;;;;;;;14.35;76.45;100581.48;86150;1298;95340;-55
2022/10/16 02:05:46;;;;;;;;;;;;;;;14.30;76.46;100582.04;86233;1292;78738;-55
2022/10/16 02:07:53;;;;;;;;;;;;;;;14.26;76.49;100584.05;86201;1291;82363;-60
2022/10/16 02:10:02;;;;;;;;;;;;;;;14.20;76.62;100582.41;86211;1291;99411;-57
2022/10/16 02:12:15;;;;;;;;;;;;;;;14.16;76.54;100581.50;86207;1285;89079;-56
2022/10/16 02:14:24;;;;;;;;;;;;;;;14.12;76.55;100576.27;86190;1297;94862;-56
2022/10/16 02:16:38;;;;;;;;;;;;;;;14.07;76.62;100575.67;86210;1295;80402;-56
2022/10/16 02:18:46;;;;;;;;;;;;;;;14.04;76.75;100575.76;86224;1290;79196;-59
2022/10/16 02:20:58;;;;;;;;;;;;;;;14.01;76.77;100575.95;86209;1297;100178;-58
2022/10/16 02:23:07;;;;;;;;;;;;;;;13.98;76.73;100573.11;86189;1292;87752;-55
2022/10/16 02:25:18;;;;;;;;;;;;;;;13.93;76.72;100572.39;86175;1295;94129;-55
2022/10/16 02:27:29;;;;;;;;;;;;;;;13.87;76.87;100573.69;86175;1297;82719;-54
2022/10/16 02:29:39;;;;;;;;;;;;;;;13.87;76.93;100575.77;86166;1299;83348;-54
2022/10/16 02:31:51;;;;;;;;;;;;;;;13.87;76.86;100577.25;86150;1288;98600;-57
2022/10/16 02:34:00;;;;;;;;;;;;;;;13.87;77.01;100580.59;86070;1280;87944;-60
2022/10/16 02:36:10;;;;;;;;;;;;;;;13.91;76.97;100579.80;86124;1296;94739;-61
2022/10/16 02:38:18;;;;;;;;;;;;;;;13.92;77.04;100582.34;86162;1289;80902;-59
2022/10/16 02:40:27;;;;;;;;;;;;;;;13.94;77.11;100583.61;86114;1296;81640;-59
2022/10/16 02:42:36;;;;;;;;;;;;;;;13.96;77.24;100581.89;86177;1296;99040;-60
2022/10/16 02:44:43;;;;;;;;;;;;;;;14.00;77.17;100584.19;86194;1290;89026;-60
2022/10/16 02:46:52;;;;;;;;;;;;;;;14.04;77.08;100584.66;86140;1298;94039;-57
2022/10/16 02:48:59;;;;;;;;;;;;;;;14.05;77.13;100585.16;86203;1291;80391;-57
2022/10/16 02:51:08;;;;;;;;;;;;;;;14.05;77.02;100589.21;86205;1296;81437;-58
2022/10/16 02:53:15;;;;;;;;;;;;;;;14.07;77.07;100592.68;86187;1298;99161;-53
2022/10/16 02:55:23;;;;;;;;;;;;;;;14.08;77.01;100590.90;86198;1288;87803;-49
2022/10/16 02:57:31;;;;;;;;;;;;;;;14.08;76.95;100596.73;86180;1288;94091;-60
2022/10/16 02:59:40;;;;;;;;;;;;;;;14.12;77.02;100593.82;86188;1298;81903;-60
2022/10/16 03:01:48;;;;;;;;;;;;;;;14.14;77.01;100598.73;86190;1290;82504;-56
2022/10/16 03:03:55;;;;;;;;;;;;;;;14.15;76.88;100599.45;86189;1296;99191;-58
2022/10/16 03:06:02;;;;;;;;;;;;;;;14.18;76.87;100601.64;86106;1287;90184;-59
2022/10/16 03:08:09;;;;;;;;;;;;;;;14.20;76.89;100603.61;86175;1291;93409;-55
2022/10/16 03:10:17;;;;;;;;;;;;;;;14.23;76.77;100603.77;86172;1296;80616;-56
2022/10/16 03:12:24;;;;;;;;;;;;;;;14.26;76.76;100607.33;86173;1297;82929;-55
2022/10/16 03:14:31;;;;;;;;;;;;;;;14.24;76.80;100611.38;86173;1294;99863;-55
2022/10/16 03:16:39;;;;;;;;;;;;;;;14.23;76.85;100614.69;86174;1296;87289;-56
2022/10/16 03:18:49;;;;;;;;;;;;;;;14.22;76.63;100611.69;86157;1291;93506;-58
2022/10/16 03:20:56;;;;;;;;;;;;;;;14.21;76.59;100612.07;86175;1291;79155;-58
2022/10/16 03:23:03;;;;;;;;;;;;;;;14.16;76.48;100611.16;86210;1295;81617;-55
2022/10/16 03:25:11;;;;;;;;;;;;;;;14.12;76.57;100613.20;86142;1294;100095;-57
2022/10/16 03:27:21;;;;;;;;;;;;;;;14.09;76.54;100612.91;86189;1288;89157;-56
2022/10/16 03:29:29;;;;;;;;;;;;;;;14.04;76.58;100614.12;86138;1291;93643;-54
2022/10/16 03:31:36;;;;;;;;;;;;;;;13.99;76.66;100617.69;86176;1291;81300;-57
2022/10/16 03:33:43;;;;;;;;;;;;;;;13.95;76.62;100617.90;86166;1293;81887;-59
2022/10/16 03:35:55;;;;;;;;;;;;;;;13.91;76.64;100612.97;86158;1296;99329;-60
2022/10/16 03:38:03;;;;;;;;;;;;;;;13.88;76.74;100614.92;86115;1298;88075;-54
2022/10/16 03:40:12;;;;;;;;;;;;;;;13.81;76.79;100615.11;86140;1288;94194;-55
2022/10/16 03:42:19;;;;;;;;;;;;;;;13.78;76.81;100618.24;86190;1296;80282;-56
2022/10/16 03:44:27;;;;;;;;;;;;;;;13.73;76.92;100617.27;86194;1291;82671;-55
2022/10/16 03:46:35;;;;;;;;;;;;;;;13.68;76.91;100624.81;86146;1297;98231;-57
2022/10/16 03:48:42;;;;;;;;;;;;;;;13.64;77.02;100625.71;86204;1289;87245;-56
2022/10/16 03:50:51;;;;;;;;;;;;;;;13.59;77.08;100622.36;86178;1292;94847;-56
2022/10/16 03:52:58;;;;;;;;;;;;;;;13.53;77.12;100619.61;86204;1290;79974;-59
2022/10/16 03:55:08;;;;;;;;;;;;;;;13.45;77.22;100625.19;86202;1296;82613;-60
2022/10/16 03:57:15;;;;;;;;;;;;;;;13.37;77.21;100626.95;86209;1296;99546;-55
2022/10/16 03:59:22;;;;;;;;;;;;;;;13.29;77.30;100629.08;86160;1290;87265;-55
2022/10/16 04:01:30;;;;;;;;;;;;;;;13.22;77.51;100633.30;86173;1295;95324;-55
2022/10/16 04:03:37;;;;;;;;;;;;;;;13.15;77.50;100633.54;86180;1295;80745;-58
2022/10/16 04:05:43;;;;;;;;;;;;;;;13.11;77.66;100636.38;86143;1290;81410;-58
2022/10/16 04:07:50;;;;;;;;;;;;;;;13.09;77.74;100629.52;86176;1295;100350;-59
2022/10/16 04:09:58;;;;;;;;;;;;;;;13.06;77.93;100632.39;86147;1296;88817;-59
2022/10/16 04:12:05;;;;;;;;;;;;;;;13.03;78.04;100628.23;86066;1298;95175;-51
2022/10/16 04:14:12;;;;;;;;;;;;;;;13.02;78.15;100629.85;86150;1296;82136;-56
2022/10/16 04:16:23;;;;;;;;;;;;;;;13.05;78.22;100634.20;86123;1295;82176;-54
2022/10/16 04:18:30;;;;;;;;;;;;;;;13.08;78.26;100636.77;86140;1290;99893;-55
2022/10/16 04:20:38;;;;;;;;;;;;;;;13.11;78.36;100635.11;86143;1290;89149;-60
2022/10/16 04:22:45;;;;;;;;;;;;;;;13.16;78.31;100636.98;86166;1295;94582;-55
2022/10/16 04:24:53;;;;;;;;;;;;;;;13.21;78.38;100635.12;86151;1290;81796;-54
2022/10/16 04:27:00;;;;;;;;;;;;;;;13.19;78.33;100636.59;86181;1290;82630;-56
2022/10/16 04:29:07;;;;;;;;;;;;;;;13.17;78.46;100639.65;86145;1289;97490;-48
2022/10/16 04:31:14;;;;;;;;;;;;;;;13.12;78.35;100645.34;86159;1292;88224;-55
2022/10/16 04:33:21;;;;;;;;;;;;;;;13.04;78.33;100647.19;86193;1291;94955;-54
2022/10/16 04:35:29;;;;;;;;;;;;;;;12.99;78.43;100646.23;86190;1296;81461;-55
2022/10/16 04:37:36;;;;;;;;;;;;;;;12.92;78.48;100645.14;86197;1291;81671;-55
2022/10/16 04:39:44;;;;;;;;;;;;;;;12.90;78.52;100644.37;86163;1290;99328;-53
2022/10/16 04:41:52;;;;;;;;;;;;;;;12.84;78.54;100647.89;86186;1294;87889;-57
2022/10/16 04:44:00;;;;;;;;;;;;;;;12.79;78.54;100644.34;86186;1297;93774;-57
2022/10/16 04:46:07;;;;;;;;;;;;;;;12.75;78.73;100648.35;86172;1291;80008;-57
2022/10/16 04:48:14;;;;;;;;;;;;;;;12.70;78.94;100653.70;86147;1298;82932;-59
2022/10/16 04:50:23;;;;;;;;;;;;;;;12.72;78.91;100655.80;85864;1291;99105;-59
2022/10/16 04:52:33;;;;;;;;;;;;;;;12.67;79.02;100656.60;86231;1290;89870;-60
2022/10/16 04:54:41;;;;;;;;;;;;;;;12.63;78.94;100659.85;86155;1290;94382;-59
2022/10/16 04:56:50;;;;;;;;;;;;;;;12.63;79.02;100659.11;86152;1290;80715;-57
2022/10/16 04:59:01;;;;;;;;;;;;;;;12.67;79.10;100661.10;86159;1296;81023;-54
2022/10/16 05:01:09;;;;;;;;;;;;;;;12.70;79.15;100662.13;86162;1292;99476;-55
2022/10/16 05:03:16;;;;;;;;;;;;;;;12.71;79.19;100659.13;86137;1296;88057;-58
2022/10/16 05:05:24;;;;;;;;;;;;;;;12.69;79.34;100660.54;86134;1296;94062;-58
2022/10/16 05:07:31;;;;;;;;;;;;;;;12.71;79.26;100668.08;86197;1290;81335;-53
2022/10/16 05:09:38;;;;;;;;;;;;;;;12.69;79.33;100679.66;86199;1291;82539;-56
2022/10/16 05:11:51;;;;;;;;;;;;;;;12.70;79.47;100682.85;86169;1290;97486;-56
2022/10/16 05:13:58;;;;;;;;;;;;;;;12.73;79.49;100680.20;86207;1291;86654;-57
2022/10/16 05:16:09;;;;;;;;;;;;;;;12.78;79.59;100685.17;86169;1297;95104;-59
2022/10/16 05:18:16;;;;;;;;;;;;;;;12.82;79.55;100687.77;86153;1296;82123;-59
2022/10/16 05:20:23;;;;;;;;;;;;;;;12.83;79.57;100685.79;86188;1294;83050;-56
2022/10/16 05:22:30;;;;;;;;;;;;;;;12.83;79.47;100682.95;86192;1290;99111;-59
2022/10/16 05:24:40;;;;;;;;;;;;;;;12.83;79.56;100677.69;86185;1290;88447;-60
2022/10/16 05:26:48;;;;;;;;;;;;;;;12.87;79.54;100682.20;86170;1290;94894;-58
2022/10/16 05:28:56;;;;;;;;;;;;;;;12.90;79.48;100677.67;86173;1291;82603;-57
2022/10/16 05:31:09;;;;;;;;;;;;;;;12.87;79.61;100679.73;86172;1291;82499;-56
2022/10/16 05:33:17;;;;;;;;;;;;;;;12.92;79.63;100679.05;86155;1296;98418;-59
2022/10/16 05:35:24;;;;;;;;;;;;;;;12.97;79.58;100678.34;86166;1290;89806;-59
2022/10/16 05:37:31;;;;;;;;;;;;;;;12.99;79.52;100678.37;86185;1287;95869;-57
2022/10/16 05:39:39;;;;;;;;;;;;;;;13.01;79.51;100678.30;86136;1290;80648;-59
2022/10/16 05:41:46;;;;;;;;;;;;;;;13.01;79.50;100678.54;86089;1290;84811;-58
2022/10/16 05:43:54;;;;;;;;;;;;;;;12.99;79.54;100678.81;86164;1290;99565;-55
2022/10/16 05:46:03;;;;;;;;;;;;;;;13.02;79.64;100683.85;86136;1290;91051;-55
2022/10/16 05:48:10;;;;;;;;;;;;;;;13.10;79.55;100684.13;86135;1291;95308;-59
2022/10/16 05:50:17;;;;;;;;;;;;;;;13.14;79.52;100686.30;86143;1291;82500;-59
2022/10/16 05:52:24;;;;;;;;;;;;;;;13.16;79.54;100686.31;86256;1296;83636;-58
2022/10/16 05:54:31;;;;;;;;;;;;;;;13.20;79.48;100696.23;86146;1294;99413;-58
2022/10/16 05:56:38;;;;;;;;;;;;;;;13.24;79.42;100698.88;86137;1293;88562;-59
2022/10/16 05:58:46;;;;;;;;;;;;;;;13.29;79.51;100699.70;86137;1292;92265;-51
2022/10/16 06:01:01;;;;;;;;;;;;;;;13.33;79.39;100699.64;86160;1294;81622;-56
2022/10/16 06:03:09;;;;;;;;;;;;;;;13.36;79.24;100700.00;86211;1295;84564;-58
2022/10/16 06:05:16;;;;;;;;;;;;;;;13.39;79.25;100701.09;86169;1290;100437;-58
2022/10/16 06:07:23;;;;;;;;;;;;;;;13.41;79.27;100700.56;86202;1289;87286;-54
2022/10/16 06:09:30;;;;;;;;;;;;;;;13.45;79.36;100704.64;86097;1290;93736;-57
2022/10/16 06:11:37;;;;;;;;;;;;;;;13.51;79.28;100710.30;86160;1296;82061;-58
2022/10/16 06:13:45;;;;;;;;;;;;;;;13.57;79.25;100707.59;86179;1295;82358;-60
2022/10/16 06:15:52;;;;;;;;;;;;;;;13.65;79.17;100711.13;86179;1296;100208;-60
2022/10/16 06:17:59;;;;;;;;;;;;;;;13.70;79.07;100715.33;86169;1290;88137;-58
2022/10/16 06:20:10;;;;;;;;;;;;;;;13.75;79.00;100714.20;86051;1290;97114;-58
2022/10/16 06:22:17;;;;;;;;;;;;;;;13.80;78.90;100710.79;86153;1292;79564;-55
2022/10/16 06:24:23;;;;;;;;;;;;;;;13.85;78.86;100710.14;86158;1291;82252;-54
2022/10/16 06:26:31;;;;;;;;;;;;;;;13.85;78.78;100712.65;86153;1290;99193;-55
2022/10/16 06:28:39;;;;;;;;;;;;;;;13.89;78.79;100716.80;86160;1296;88622;-59
2022/10/16 06:30:47;;;;;;;;;;;;;;;13.93;78.72;100719.83;86148;1294;95225;-59
2022/10/16 06:32:53;;;;;;;;;;;;;;;13.93;78.62;100716.77;86176;1295;79434;-57
2022/10/16 06:35:00;;;;;;;;;;;;;;;13.96;78.54;100721.33;86162;1297;80559;-58
2022/10/16 06:37:07;;;;;;;;;;;;;;;14.04;78.57;100722.86;86163;1294;97747;-56
2022/10/16 06:39:15;;;;;;;;;;;;;;;14.10;78.43;100721.59;86134;1293;89302;-52
2022/10/16 06:41:23;;;;;;;;;;;;;;;14.20;78.52;100725.60;86128;1291;95189;-55
2022/10/16 06:43:45;;;;;;;;;;;;;;;14.32;78.34;100729.60;86122;1288;80643;-56
2022/10/16 06:45:56;;;;;;;;;;;;;;;14.38;78.38;100728.25;86157;1290;82725;-56
2022/10/16 06:48:02;;;;;;;;;;;;;;;14.47;78.32;100725.80;86193;1296;98662;-55
2022/10/16 06:50:10;;;;;;;;;;;;;;;14.58;78.13;100731.06;86186;1290;89281;-58
2022/10/16 06:52:17;;;;;;;;;;;;;;;14.72;78.06;100732.58;86213;1290;95779;-59
2022/10/16 06:54:24;;;;;;;;;;;;;;;14.87;77.96;100731.83;86202;1296;80732;-59
2022/10/16 06:56:32;;;;;;;;;;;;;;;15.02;77.72;100731.02;86174;1290;82169;-58
2022/10/16 06:58:41;;;;;;;;;;;;;;;15.26;77.70;100737.58;86217;1291;98476;-58
2022/10/16 07:00:56;;;;;;;;;;;;;;;15.60;77.40;100734.95;86202;1292;87453;-58
2022/10/16 07:03:03;;;;;;;;;;;;;;;15.77;77.17;100741.14;86190;1297;95100;-56
2022/10/16 07:05:11;;;;;;;;;;;;;;;15.89;76.81;100745.04;86154;1294;81271;-57
2022/10/16 07:07:18;;;;;;;;;;;;;;;15.92;76.30;100747.71;86165;1294;81525;-59
2022/10/16 07:09:28;;;;;;;;;;;;;;;15.94;75.84;100746.83;86177;1291;98481;-59
2022/10/16 07:11:35;;;;;;;;;;;;;;;15.86;75.76;100749.54;86194;1295;88278;-57
2022/10/16 07:13:44;;;;;;;;;;;;;;;15.72;75.82;100759.38;86065;1290;95708;-57
2022/10/16 07:15:51;;;;;;;;;;;;;;;15.62;75.69;100759.83;86060;1291;82413;-59
2022/10/16 07:17:59;;;;;;;;;;;;;;;15.54;75.52;100757.88;86174;1294;80693;-56
2022/10/16 07:20:08;;;;;;;;;;;;;;;15.41;75.65;100758.96;86161;1288;98631;-56
2022/10/16 07:22:15;;;;;;;;;;;;;;;15.36;75.63;100756.20;86192;1288;88100;-58
2022/10/16 07:24:22;;;;;;;;;;;;;;;15.33;75.49;100761.66;86173;1288;93401;-57
2022/10/16 07:26:31;;;;;;;;;;;;;;;15.28;75.62;100762.16;86175;1290;79882;-59
2022/10/16 07:28:39;;;;;;;;;;;;;;;15.27;75.59;100759.60;86208;1290;82570;-57
2022/10/16 07:30:46;;;;;;;;;;;;;;;15.26;75.67;100753.13;86210;1296;98279;-59
2022/10/16 07:32:54;;;;;;;;;;;;;;;15.31;75.76;100749.26;86165;1290;89001;-54
2022/10/16 07:35:01;;;;;;;;;;;;;;;15.41;75.67;100754.31;86161;1290;93916;-55
2022/10/16 07:37:08;;;;;;;;;;;;;;;15.54;75.59;100745.77;86167;1290;80500;-57
2022/10/16 07:39:15;;;;;;;;;;;;;;;15.99;75.92;100733.33;86222;1288;82404;-58
2022/10/16 07:41:22;;;;;;;;;;;;;;;17.82;75.23;100728.32;86184;1290;98129;-58
2022/10/16 07:43:30;;;;;;;;;;;;;;;19.67;73.46;100729.48;86189;1290;88803;-55
2022/10/16 07:45:37;;;;;;;;;;;;;;;21.26;71.58;100735.85;86185;1288;95273;-55
2022/10/16 07:47:44;;;;;;;;;;;;;;;22.53;69.74;100748.26;86174;1290;78689;-60
2022/10/16 07:49:52;;;;;;;;;;;;;;;22.82;68.07;100739.11;86190;1290;82544;-62
2022/10/16 07:52:00;;;;;;;;;;;;;;;22.85;66.13;100734.67;86220;1297;99586;-59
2022/10/16 07:54:09;;;;;;;;;;;;;;;23.02;65.71;100738.96;86159;1292;88541;-60
2022/10/16 07:56:19;;;;;;;;;;;;;;;23.10;64.17;100738.96;86211;1287;94046;-59
2022/10/16 07:58:31;;;;;;;;;;;;;;;22.89;63.67;100738.84;86187;1290;80591;-60
2022/10/16 08:00:39;;;;;;;;;;;;;;;22.44;63.82;100746.52;86201;1290;81603;-59
2022/10/16 08:02:47;;;;;;;;;;;;;;;21.94;63.45;100747.61;86158;1290;100112;-57
2022/10/16 08:04:56;;;;;;;;;;;;;;;21.49;62.83;100757.19;86195;1290;87938;-56
2022/10/16 08:07:03;;;;;;;;;;;;;;;21.10;62.88;100769.86;86161;1291;94192;-56
2022/10/16 08:09:12;;;;;;;;;;;;;;;20.72;62.96;100769.97;86070;1290;79252;-53
2022/10/16 08:11:23;;;;;;;;;;;;;;;20.40;62.95;100773.50;86190;1298;80727;-56
2022/10/16 08:13:30;;;;;;;;;;;;;;;20.25;63.32;100775.46;86114;1290;99657;-58
2022/10/16 08:15:37;;;;;;;;;;;;;;;20.17;63.79;100770.64;86158;1291;87994;-59
2022/10/16 08:17:44;;;;;;;;;;;;;;;20.18;63.69;100771.84;86178;1294;94023;-59
2022/10/16 08:19:51;;;;;;;;;;;;;;;20.16;63.81;100774.28;86158;1288;81298;-59
2022/10/16 08:21:58;;;;;;;;;;;;;;;20.13;63.97;100776.75;86197;1290;79695;-58
2022/10/16 08:24:06;;;;;;;;;;;;;;;19.99;63.86;100776.79;86194;1288;97353;-58
2022/10/16 08:26:13;;;;;;;;;;;;;;;19.98;64.17;100774.18;86206;1290;87795;-60
2022/10/16 08:28:20;;;;;;;;;;;;;;;20.06;64.23;100778.48;86188;1290;93772;-59
2022/10/16 08:30:27;;;;;;;;;;;;;;;20.14;64.48;100780.88;86198;1294;80311;-57
2022/10/16 08:32:37;;;;;;;;;;;;;;;20.13;64.49;100787.94;86256;1291;81803;-58
2022/10/16 08:34:44;;;;;;;;;;;;;;;20.18;64.01;100787.98;86210;1297;97672;-61
2022/10/16 08:36:51;;;;;;;;;;;;;;;20.10;64.06;100790.58;86221;1290;88313;-56
2022/10/16 08:39:01;;;;;;;;;;;;;;;20.15;64.65;100788.45;86194;1290;94640;-54
2022/10/16 08:41:45;;;;;;;;;;;;;;;20.24;64.67;100789.29;86206;1298;79490;-56
2022/10/16 08:44:08;;;;;;;;;;;;;;;20.33;64.46;100786.08;86089;1291;80797;-59
2022/10/16 08:46:27;;;;;;;;;;;;;;;20.26;64.41;100785.88;86146;1296;98604;-59
2022/10/16 08:48:41;;;;;;;;;;;;;;;20.15;64.40;100786.02;86145;1291;88169;-59
2022/10/16 08:50:49;;;;;;;;;;;;;;;20.11;64.05;100783.51;86166;1297;94787;-60
2022/10/16 08:52:57;;;;;;;;;;;;;;;20.13;64.22;100785.30;86138;1290;80126;-60
2022/10/16 08:55:05;;;;;;;;;;;;;;;20.29;64.79;100786.16;86166;1290;81964;-60
2022/10/16 08:57:18;;;;;;;;;;;;;;;20.48;64.52;100794.98;86180;1290;99848;-59
2022/10/16 08:59:25;;;;;;;;;;;;;;;20.51;63.87;100795.61;86173;1288;88490;-59
2022/10/16 09:01:39;;;;;;;;;;;;;;;20.51;63.47;100796.94;86133;1290;94605;-59
2022/10/16 09:04:09;;;;;;;;;;;;;;;20.59;63.81;100796.10;86171;1291;79056;-55
2022/10/16 09:06:39;;;;;;;;;;;;;;;20.68;63.87;100793.45;86103;1290;82495;-56
2022/10/16 09:08:56;;;;;;;;;;;;;;;20.75;63.62;100794.90;86163;1290;97743;-55
2022/10/16 09:11:10;;;;;;;;;;;;;;;20.83;63.30;100789.18;86166;1298;88020;-55
2022/10/16 09:13:26;;;;;;;;;;;;;;;21.25;63.49;100787.95;86168;1281;95120;-58
2022/10/16 09:15:40;;;;;;;;;;;;;;;22.18;63.27;100778.95;86179;1296;79341;-56
2022/10/16 09:17:54;;;;;;;;;;;;;;;22.70;62.68;100779.75;86221;1290;81542;-59
2022/10/16 09:20:13;;;;;;;;;;;;;;;22.94;62.16;100778.68;86183;1290;99390;-52
2022/10/16 09:22:23;;;;;;;;;;;;;;;23.20;61.79;100780.23;86197;1284;86943;-58
2022/10/16 09:24:31;;;;;;;;;;;;;;;23.17;60.39;100778.60;86208;1290;93800;-57
2022/10/16 09:26:38;;;;;;;;;;;;;;;22.95;59.88;100771.91;86231;1296;80788;-57
2022/10/16 09:28:45;;;;;;;;;;;;;;;22.68;59.19;100769.38;86195;1290;82380;-57
2022/10/16 09:30:53;;;;;;;;;;;;;;;22.52;60.16;100771.27;86214;1290;99103;-55
2022/10/16 09:33:03;;;;;;;;;;;;;;;22.39;59.97;100775.85;86117;1290;90955;-56
2022/10/16 09:35:16;;;;;;;;;;;;;;;22.34;59.76;100780.05;86172;1290;92978;-54
2022/10/16 09:37:24;;;;;;;;;;;;;;;22.24;59.79;100779.36;86190;1287;79744;-58
2022/10/16 09:39:31;;;;;;;;;;;;;;;22.08;59.77;100778.55;86164;1295;80974;-59
2022/10/16 09:41:41;;;;;;;;;;;;;;;21.93;60.27;100779.51;86204;1290;98195;-59
2022/10/16 09:43:54;;;;;;;;;;;;;;;21.84;60.38;100779.59;86186;1290;86326;-57
2022/10/16 09:46:03;;;;;;;;;;;;;;;21.75;60.43;100781.21;86157;1288;93933;-58
2022/10/16 09:48:21;;;;;;;;;;;;;;;21.72;60.46;100783.86;86153;1295;80337;-56
2022/10/16 09:50:29;;;;;;;;;;;;;;;21.64;60.88;100782.98;86185;1290;82807;-57
2022/10/16 09:52:36;;;;;;;;;;;;;;;21.63;60.95;100786.27;86185;1295;100106;-56
2022/10/16 09:54:54;;;;;;;;;;;;;;;21.63;60.63;100785.22;86110;1290;86635;-56
2022/10/16 09:57:13;;;;;;;;;;;;;;;21.63;60.87;100786.98;86154;1291;93587;-61
2022/10/16 09:59:23;;;;;;;;;;;;;;;21.65;60.86;100786.35;86155;1290;79940;-60
2022/10/16 10:01:37;;;;;;;;;;;;;;;21.65;61.03;100788.67;86110;1292;80388;-59
2022/10/16 10:03:46;;;;;;;;;;;;;;;21.70;60.86;100785.66;86129;1290;99810;-58
2022/10/16 10:05:54;;;;;;;;;;;;;;;21.78;60.84;100785.27;86155;1280;88285;-58
2022/10/16 10:08:05;;;;;;;;;;;;;;;21.89;61.11;100786.70;86179;1295;94350;-55
2022/10/16 10:10:23;;;;;;;;;;;;;;;21.99;61.06;100787.52;86209;1295;79354;-56
2022/10/16 10:12:32;;;;;;;;;;;;;;;22.05;60.49;100787.05;86254;1291;80570;-57
2022/10/16 10:14:41;;;;;;;;;;;;;;;22.00;59.99;100786.83;86221;1290;99048;-56
2022/10/16 10:16:49;;;;;;;;;;;;;;;21.88;59.80;100784.95;86167;1290;88841;-58
2022/10/16 10:19:02;;;;;;;;;;;;;;;21.81;60.04;100779.05;86206;1291;94892;-56
2022/10/16 10:21:18;;;;;;;;;;;;;;;21.82;60.40;100774.21;86175;1290;79421;-57
2022/10/16 10:23:27;;;;;;;;;;;;;;;21.82;60.24;100773.44;86195;1290;82942;-60
2022/10/16 10:25:54;;;;;;;;;;;;;;;21.73;60.52;100769.75;86162;1296;99952;-60
2022/10/16 10:28:11;;;;;;;;;;;;;;;21.74;60.64;100768.05;86169;1296;87540;-61
2022/10/16 10:30:23;;;;;;;;;;;;;;;21.71;60.71;100765.04;86134;1290;94651;-61
2022/10/16 10:32:35;;;;;;;;;;;;;;;21.70;60.58;100767.00;86149;1290;80471;-57
2022/10/16 10:35:03;;;;;;;;;;;;;;;21.63;60.51;100770.05;86148;1290;82153;-60
2022/10/16 10:37:23;;;;;;;;;;;;;;;21.51;60.16;100770.59;86136;1288;98497;-55
2022/10/16 10:39:36;;;;;;;;;;;;;;;21.43;60.51;100775.95;86158;1290;88972;-55
2022/10/16 10:42:09;;;;;;;;;;;;;;;21.44;60.47;100772.00;86152;1294;94784;-58
2022/10/16 10:44:26;;;;;;;;;;;;;;;21.29;60.43;100768.64;86166;1290;78471;-55
2022/10/16 10:46:44;;;;;;;;;;;;;;;21.25;60.62;100768.68;86191;1295;82751;-55
2022/10/16 10:49:03;;;;;;;;;;;;;;;21.24;60.64;100770.42;86178;1281;97244;-58
2022/10/16 10:51:15;;;;;;;;;;;;;;;21.18;60.62;100765.23;86146;1290;88544;-57
2022/10/16 10:53:42;;;;;;;;;;;;;;;21.14;60.20;100763.16;86141;1291;95637;-61
2022/10/16 10:55:55;;;;;;;;;;;;;;;21.14;60.61;100760.70;86150;1297;80232;-61
2022/10/16 10:58:21;;;;;;;;;;;;;;;21.16;60.54;100769.46;86159;1288;81694;-55
2022/10/16 11:00:39;;;;;;;;;;;;;;;21.11;60.72;100766.37;86167;1290;98637;-56
2022/10/16 11:02:51;;;;;;;;;;;;;;;21.16;60.75;100768.59;86169;1294;88225;-58
2022/10/16 11:05:23;;;;;;;;;;;;;;;21.24;60.72;100770.54;86086;1294;95262;-59
2022/10/16 11:07:46;;;;;;;;;;;;;;;21.33;60.59;100766.27;86184;1288;77093;-56